createdAt,value
2018-07-29T00:01:43.832Z,100882.42
2018-07-29T00:06:38.385Z,100882.42
2018-07-29T00:11:33.257Z,100885.09
2018-07-29T00:16:28.159Z,100893.02
2018-07-29T00:21:23.256Z,100891.83
2018-07-29T00:26:17.766Z,100892.47
2018-07-29T00:31:12.198Z,100884.76
2018-07-29T00:36:06.818Z,100886.10
2018-07-29T00:41:01.304Z,100889.13
2018-07-29T00:46:02.202Z,100880.20
2018-07-29T00:50:56.685Z,100880.48
2018-07-29T00:55:51.222Z,100878.86
2018-07-29T01:00:45.744Z,100881.30
2018-07-29T01:05:40.443Z,100882.80
2018-07-29T01:10:36.042Z,100889.50
2018-07-29T01:15:30.761Z,100884.05
2018-07-29T01:20:25.214Z,100892.66
2018-07-29T01:25:19.853Z,100885.38
2018-07-29T01:30:14.732Z,100876.28
2018-07-29T01:35:09.378Z,100871.20
2018-07-29T01:40:04.012Z,100862.16
2018-07-29T01:44:59.233Z,100861.15
2018-07-29T01:49:54.240Z,100865.22
2018-07-29T01:54:49.039Z,100852.92
2018-07-29T01:59:43.254Z,100848.33
2018-07-29T02:04:38.126Z,100845.61
2018-07-29T02:09:32.848Z,100845.09
2018-07-29T02:14:27.426Z,100849.44
2018-07-29T02:19:22.237Z,100837.63
2018-07-29T02:24:17.017Z,100839.12
2018-07-29T02:29:11.650Z,100829.86
2018-07-29T02:34:06.410Z,100827.69
2018-07-29T02:39:01.042Z,100827.39
2018-07-29T02:43:55.682Z,100830.41
2018-07-29T02:48:50.252Z,100820.50
2018-07-29T02:53:47.442Z,100824.39
2018-07-29T02:58:42.173Z,100818.64
2018-07-29T03:03:36.781Z,100828.58
2018-07-29T03:08:31.444Z,100826.04
2018-07-29T03:13:26.508Z,100832.92
2018-07-29T03:18:20.966Z,100842.52
2018-07-29T03:23:15.682Z,100845.37
2018-07-29T03:28:10.333Z,100841.08
2018-07-29T03:33:04.809Z,100848.30
2018-07-29T03:37:59.289Z,100852.33
2018-07-29T03:42:53.879Z,100837.68
2018-07-29T03:47:48.358Z,100822.52
2018-07-29T03:52:43.055Z,100830.58
2018-07-29T03:57:37.550Z,100827.96
2018-07-29T04:02:32.009Z,100818.59
2018-07-29T04:07:26.682Z,100817.22
2018-07-29T04:12:21.155Z,100809.08
2018-07-29T04:17:15.787Z,100822.06
2018-07-29T04:22:10.262Z,100822.75
2018-07-29T04:27:04.765Z,100826.44
2018-07-29T04:31:59.260Z,100831.55
2018-07-29T04:36:53.996Z,100823.44
2018-07-29T04:41:48.587Z,100809.78
2018-07-29T04:46:43.053Z,100792.08
2018-07-29T04:51:37.520Z,100797.64
2018-07-29T04:56:31.938Z,100823.78
2018-07-29T05:01:26.413Z,100823.75
2018-07-29T05:06:21.053Z,100825.81
2018-07-29T05:11:15.520Z,100826.22
2018-07-29T05:16:09.986Z,100833.08
2018-07-29T05:21:04.571Z,100825.88
2018-07-29T05:25:59.465Z,100829.34
2018-07-29T05:30:54.583Z,100819.65
2018-07-29T05:35:49.204Z,100816.03
2018-07-29T05:40:44.455Z,100811.78
2018-07-29T05:50:32.156Z,100827.42
2018-07-29T05:55:26.713Z,100829.87
2018-07-29T06:00:21.190Z,100826.23
2018-07-29T06:05:15.980Z,100823.75
2018-07-29T06:10:10.636Z,100827.45
2018-07-29T06:15:07.642Z,100834.15
2018-07-29T06:20:02.120Z,100831.02
2018-07-29T06:24:57.662Z,100830.55
2018-07-29T06:29:52.258Z,100823.98
2018-07-29T06:34:48.724Z,100829.81
2018-07-29T06:39:43.216Z,100826.72
2018-07-29T06:44:38.462Z,100824.94
2018-07-29T06:49:39.412Z,100825.53
2018-07-29T06:54:34.080Z,100836.31
2018-07-29T06:59:28.636Z,100844.44
2018-07-29T07:04:23.619Z,100838.48
2018-07-29T07:09:18.237Z,100840.06
2018-07-29T07:14:12.945Z,100832.17
2018-07-29T07:19:08.423Z,100837.97
2018-07-29T07:24:02.990Z,100831.92
2018-07-29T07:29:00.234Z,100833.75
2018-07-29T07:33:55.016Z,100839.17
2018-07-29T07:38:49.623Z,100840.94
2018-07-29T07:43:44.356Z,100841.88
2018-07-29T07:48:38.832Z,100849.38
2018-07-29T07:53:33.649Z,100838.92
2018-07-29T07:58:28.356Z,100848.61
2018-07-29T08:03:23.352Z,100853.03
2018-07-29T08:08:18.254Z,100855.70
2018-07-29T08:13:13.224Z,100847.05
2018-07-29T08:18:08.232Z,100838.97
2018-07-29T08:23:03.090Z,100841.56
2018-07-29T08:27:58.403Z,100844.94
2018-07-29T08:32:53.166Z,100842.45
2018-07-29T08:37:47.992Z,100831.45
2018-07-29T08:42:42.742Z,100839.88
2018-07-29T08:47:37.858Z,100838.42
2018-07-29T08:52:32.669Z,100836.83
2018-07-29T08:57:27.732Z,100831.20
2018-07-29T09:02:22.292Z,100828.84
2018-07-29T09:07:17.274Z,100830.63
2018-07-29T09:12:11.751Z,100818.03
2018-07-29T09:17:06.894Z,100825.59
2018-07-29T09:22:01.539Z,100821.88
2018-07-29T09:26:56.281Z,100817.92
2018-07-29T09:31:51.304Z,100804.89
2018-07-29T09:36:46.148Z,100808.64
2018-07-29T09:41:40.718Z,100793.30
2018-07-29T09:46:36.103Z,100798.66
2018-07-29T09:51:30.898Z,100798.88
2018-07-29T09:56:25.724Z,100795.00
2018-07-29T10:01:20.572Z,100795.11
2018-07-29T10:06:15.423Z,100794.95
2018-07-29T10:11:10.188Z,100795.14
2018-07-29T10:16:05.423Z,100800.69
2018-07-29T10:21:00.193Z,100801.17
2018-07-29T10:25:55.117Z,100805.72
2018-07-29T10:30:49.899Z,100798.07
2018-07-29T10:35:44.714Z,100795.76
2018-07-29T10:40:40.851Z,100784.52
2018-07-29T10:45:35.872Z,100787.52
2018-07-29T10:50:30.607Z,100777.13
2018-07-29T10:55:25.650Z,100767.11
2018-07-29T11:00:20.545Z,100769.23
2018-07-29T11:05:15.440Z,100764.11
2018-07-29T11:10:10.088Z,100761.81
2018-07-29T11:15:04.935Z,100764.36
2018-07-29T11:19:59.834Z,100763.80
2018-07-29T11:24:54.687Z,100758.48
2018-07-29T11:29:49.610Z,100765.78
2018-07-29T11:34:44.662Z,100761.14
2018-07-29T11:39:39.818Z,100759.30
2018-07-29T11:44:34.567Z,100749.16
2018-07-29T11:49:29.380Z,100744.34
2018-07-29T11:54:24.714Z,100758.85
2018-07-29T11:59:19.778Z,100766.41
2018-07-29T12:04:15.794Z,100755.45
2018-07-29T12:09:11.654Z,100751.78
2018-07-29T12:14:06.806Z,100748.02
2018-07-29T12:19:01.970Z,100751.72
2018-07-29T12:23:56.591Z,100737.86
2018-07-29T12:28:52.237Z,100737.92
2018-07-29T12:33:47.576Z,100724.22
2018-07-29T12:38:42.522Z,100727.63
2018-07-29T12:43:37.379Z,100722.75
2018-07-29T12:48:32.574Z,100722.02
2018-07-29T12:53:27.684Z,100713.70
2018-07-29T12:58:22.452Z,100711.74
2018-07-29T13:03:17.686Z,100709.62
2018-07-29T13:08:12.606Z,100694.95
2018-07-29T13:13:07.800Z,100690.83
2018-07-29T13:18:02.717Z,100679.89
2018-07-29T13:22:57.844Z,100668.39
2018-07-29T13:27:52.946Z,100678.46
2018-07-29T13:32:47.794Z,100680.72
2018-07-29T13:37:42.588Z,100669.39
2018-07-29T13:42:37.822Z,100667.34
2018-07-29T13:47:32.676Z,100655.24
2018-07-29T13:52:27.957Z,100652.03
2018-07-29T13:57:23.434Z,100640.66
2018-07-29T14:02:20.656Z,100642.60
2018-07-29T14:07:15.391Z,100635.98
2018-07-29T14:12:10.148Z,100644.94
2018-07-29T14:17:04.686Z,100629.47
2018-07-29T14:21:59.462Z,100628.44
2018-07-29T14:26:53.920Z,100632.50
2018-07-29T14:31:48.957Z,100625.02
2018-07-29T14:36:43.758Z,100618.19
2018-07-29T14:41:38.513Z,100626.92
2018-07-29T14:46:33.023Z,100616.72
2018-07-29T14:51:28.546Z,100619.03
2018-07-29T14:56:23.070Z,100616.75
2018-07-29T15:01:17.980Z,100616.36
2018-07-29T15:06:12.908Z,100610.11
2018-07-29T15:11:07.796Z,100607.09
2018-07-29T15:16:02.879Z,100605.02
2018-07-29T15:20:57.535Z,100600.27
2018-07-29T15:25:52.254Z,100599.09
2018-07-29T15:30:46.997Z,100587.05
2018-07-29T15:35:42.155Z,100578.45
2018-07-29T15:40:37.040Z,100580.48
2018-07-29T15:45:31.794Z,100573.91
2018-07-29T15:50:26.467Z,100575.44
2018-07-29T15:55:23.390Z,100569.69
2018-07-29T16:00:18.287Z,100564.59
2018-07-29T16:05:13.121Z,100568.77
2018-07-29T16:10:08.911Z,100574.71
2018-07-29T16:15:04.395Z,100564.12
2018-07-29T16:19:59.594Z,100566.77
2018-07-29T16:24:54.625Z,100559.34
2018-07-29T16:29:49.640Z,100556.75
2018-07-29T16:34:44.650Z,100555.59
2018-07-29T16:39:39.676Z,100554.59
2018-07-29T16:44:34.676Z,100555.37
2018-07-29T16:49:29.793Z,100557.35
2018-07-29T16:54:24.569Z,100559.27
2018-07-29T16:59:19.769Z,100545.66
2018-07-29T17:04:14.967Z,100544.22
2018-07-29T17:09:11.279Z,100545.95
2018-07-29T17:14:06.499Z,100540.09
2018-07-29T17:19:01.643Z,100544.21
2018-07-29T17:23:57.222Z,100541.61
2018-07-29T17:28:52.480Z,100549.21
2018-07-29T17:33:46.958Z,100550.83
2018-07-29T17:38:41.940Z,100549.16
2018-07-29T17:43:36.658Z,100557.36
2018-07-29T17:48:31.628Z,100563.30
2018-07-29T17:53:26.624Z,100558.39
2018-07-29T17:58:21.584Z,100564.62
2018-07-29T18:03:16.500Z,100569.54
2018-07-29T18:08:11.401Z,100572.22
2018-07-29T18:13:06.218Z,100585.42
2018-07-29T18:18:00.754Z,100590.39
2018-07-29T18:22:56.072Z,100595.34
2018-07-29T18:27:51.099Z,100598.11
2018-07-29T18:32:46.461Z,100600.38
2018-07-29T18:37:41.628Z,100609.18
2018-07-29T18:42:36.663Z,100617.44
2018-07-29T18:47:31.464Z,100622.80
2018-07-29T18:52:26.669Z,100632.39
2018-07-29T18:57:21.190Z,100634.50
2018-07-29T19:02:16.406Z,100645.59
2018-07-29T19:07:11.484Z,100648.20
2018-07-29T19:12:06.049Z,100661.15
2018-07-29T19:17:00.570Z,100657.56
2018-07-29T19:21:55.164Z,100668.52
2018-07-29T19:26:51.086Z,100675.88
2018-07-29T19:31:45.761Z,100679.19
2018-07-29T19:36:40.405Z,100693.48
2018-07-29T19:41:35.283Z,100693.44
2018-07-29T19:46:30.037Z,100700.80
2018-07-29T19:51:24.857Z,100708.17
2018-07-29T19:56:19.751Z,100709.95
2018-07-29T20:01:15.075Z,100719.91
2018-07-29T20:06:09.784Z,100724.77
2018-07-29T20:11:04.489Z,100733.73
2018-07-29T20:15:59.315Z,100737.73
2018-07-29T20:20:54.208Z,100736.98
2018-07-29T20:25:49.073Z,100735.20
2018-07-29T20:30:43.982Z,100741.69
2018-07-29T20:35:38.449Z,100738.37
2018-07-29T20:40:33.401Z,100745.36
2018-07-29T20:45:27.890Z,100743.90
2018-07-29T20:50:22.604Z,100747.89
2018-07-29T20:55:17.126Z,100750.78
2018-07-29T21:00:11.595Z,100744.64
2018-07-29T21:05:06.139Z,100750.59
2018-07-29T21:10:02.654Z,100757.21
2018-07-29T21:14:57.565Z,100764.22
2018-07-29T21:19:54.442Z,100773.05
2018-07-29T21:24:49.109Z,100769.96
2018-07-29T21:29:43.732Z,100773.77
2018-07-29T21:34:38.420Z,100773.57
2018-07-29T21:39:33.425Z,100770.14
2018-07-29T21:44:28.754Z,100772.16
2018-07-29T21:49:23.752Z,100773.83
2018-07-29T21:54:19.517Z,100779.92
2018-07-29T21:59:14.167Z,100786.70
2018-07-29T22:04:09.451Z,100797.06
2018-07-29T22:09:05.352Z,100792.36
2018-07-29T22:13:59.812Z,100787.62
2018-07-29T22:18:54.242Z,100790.34
2018-07-29T22:23:48.999Z,100797.97
2018-07-29T22:28:45.362Z,100799.97
2018-07-29T22:33:39.816Z,100813.88
2018-07-29T22:38:34.314Z,100817.57
2018-07-29T22:43:28.844Z,100824.66
2018-07-29T22:48:23.296Z,100831.58
2018-07-29T22:53:17.688Z,100829.03
2018-07-29T22:58:13.086Z,100829.17
2018-07-29T23:03:09.094Z,100831.70
2018-07-29T23:08:04.772Z,100834.41
2018-07-29T23:12:59.370Z,100833.42
2018-07-29T23:17:53.864Z,100833.79
2018-07-29T23:22:48.518Z,100831.13
2018-07-29T23:27:42.945Z,100837.10
2018-07-29T23:32:37.139Z,100842.54
2018-07-29T23:37:31.618Z,100841.88
2018-07-29T23:42:26.218Z,100839.53
2018-07-29T23:47:20.728Z,100835.33
2018-07-29T23:52:15.215Z,100840.61
2018-07-29T23:57:09.749Z,100838.77
